Pagrindinis puslapis
METAR-TAF:

METAR-TAF

Oro uostai :

Karačis, Pakistanas

platuma: 24-54N, ilguma: 067-08E, Aukštis: 21 m

Dabartinis oras

Ataskaita buvo paskelbta 23 minutes, ne 22:30 UTC
Vėjas 6 kt iš Vakarų/Pietvakarių
Temperatūra 27°C
Drėgmė 84%
Slėgis 1006 hPa
Matomumas: 6000 m
Išsisklaidę debesys ne aukštis 2000 ft

METAR: OPKC 192230Z 24006KT 6000 SCT020 27/24 Q1006 NOSIG

Laikas: 03:53 (22:53 UTC)

Prognozė

Ataskaita buvo paskelbta 7 valandos ir 23 minutes, ne 15:30 UTC
Prognozė galioja nuo 19 metu 18 UTC su 20 metu 24 UTC
Vėjas 8 kt iš Vakarų su gūsio iki 18 kt
Matomumas: 6000 m
Laikinai
nuo 19 metu 23 UTC su 20 metu 03 UTC
Vėjas 8 kt iš Vakarų
Matomumas: 4000 m
migla
Nuo 20 metu 0600 UTC
Vėjas 5 kt iš Vakarų su gūsio iki 15 kt
Matomumas: 6000 m

TAF: OPKC 191530Z 1918/2024 28008G18KT 6000 NSC TEMPO 1923/2003 26008KT 4000 HZ NSC FM200600 27005G15KT 6000 NSC

Orai ataskaitas ir orų prognozės (METAR, TAF).

turimą stotys yra geltonos ir raudonos taškus žemėlapyje.

Perkelti pele per norėdami pamatyti stoties vardą.

Tada spustelėkite, norėdami matyti oro stebėjimo ir prognozės.

Norėdami pakeisti žemėlapį: spustelėkite ant žalios mygtukų su juodo kryžiaus žemyn,; žalią mygtuką su brūkšneliu, jei norite nutolinti; arba žalių rodyklių gretimoms žemėlapius.


METAR-TAF: